createdAt,value
2024-01-24T00:00:12.140Z,105.90
2024-01-24T00:03:14.792Z,105.38
2024-01-24T00:06:17.469Z,95.43
2024-01-24T00:09:20.062Z,97.03
2024-01-24T00:12:22.760Z,88.78
2024-01-24T00:15:25.912Z,91.18
2024-01-24T00:18:29.126Z,91.60
2024-01-24T00:21:31.888Z,89.38
2024-01-24T00:24:34.574Z,91.85
2024-01-24T00:27:37.260Z,85.35
2024-01-24T00:30:40.064Z,86.03
2024-01-24T00:33:42.753Z,80.93
2024-01-24T00:36:45.417Z,79.50
2024-01-24T00:39:49.052Z,92.50
2024-01-24T00:42:51.757Z,81.35
2024-01-24T00:45:55.139Z,86.28
2024-01-24T00:48:57.796Z,86.03
2024-01-24T00:52:00.881Z,84.70
2024-01-24T00:55:04.012Z,85.65
2024-01-24T00:58:06.584Z,78.97
2024-01-24T01:01:10.245Z,91.53
2024-01-24T01:04:13.090Z,84.35
2024-01-24T01:07:16.151Z,86.22
2024-01-24T01:10:18.967Z,84.97
2024-01-24T01:13:21.541Z,84.57
2024-01-24T01:16:24.194Z,84.78
2024-01-24T01:19:26.840Z,93.00
2024-01-24T01:22:29.522Z,90.25
2024-01-24T01:25:32.195Z,89.32
2024-01-24T01:28:34.809Z,86.45
2024-01-24T01:31:37.525Z,87.47
2024-01-24T01:34:40.478Z,88.22
2024-01-24T01:37:43.688Z,83.47
2024-01-24T01:40:46.189Z,81.10
2024-01-24T01:43:48.705Z,82.32
2024-01-24T01:46:52.729Z,82.78
2024-01-24T01:49:55.656Z,83.00
2024-01-24T01:52:59.875Z,84.40
2024-01-24T01:56:02.530Z,88.75
2024-01-24T01:59:06.691Z,79.95
2024-01-24T02:02:11.405Z,90.90
2024-01-24T02:05:16.187Z,77.97
2024-01-24T02:08:18.782Z,76.53
2024-01-24T02:11:22.274Z,83.33
2024-01-24T02:14:25.588Z,79.10
2024-01-24T02:17:28.084Z,82.25
2024-01-24T02:20:33.042Z,72.93
2024-01-24T02:23:36.864Z,79.03
2024-01-24T02:26:40.246Z,75.53
2024-01-24T02:29:43.882Z,74.65
2024-01-24T02:32:47.020Z,74.30
2024-01-24T02:35:50.190Z,79.07
2024-01-24T02:38:54.894Z,84.22
2024-01-24T02:41:58.927Z,84.30
2024-01-24T02:45:01.436Z,76.07
2024-01-24T02:48:04.471Z,81.20
2024-01-24T02:51:07.067Z,80.88
2024-01-24T02:54:09.611Z,75.72
2024-01-24T02:57:12.216Z,85.78
2024-01-24T03:00:15.227Z,80.13
2024-01-24T03:03:17.851Z,79.33
2024-01-24T03:06:21.511Z,83.68
2024-01-24T03:09:24.103Z,88.95
2024-01-24T03:12:26.636Z,86.53
2024-01-24T03:15:29.142Z,81.80
2024-01-24T03:18:31.747Z,86.93
2024-01-24T03:21:34.377Z,78.10
2024-01-24T03:24:37.219Z,83.70
2024-01-24T03:27:40.039Z,86.75
2024-01-24T03:30:42.941Z,90.07
2024-01-24T03:33:45.678Z,97.00
2024-01-24T03:36:48.843Z,86.90
2024-01-24T03:39:51.466Z,87.63
2024-01-24T03:42:54.372Z,88.77
2024-01-24T03:45:57.143Z,87.78
2024-01-24T03:48:59.824Z,94.75
2024-01-24T03:52:04.301Z,87.30
2024-01-24T03:55:07.215Z,88.53
2024-01-24T03:58:09.680Z,93.75
2024-01-24T04:01:12.344Z,85.90
2024-01-24T04:04:15.069Z,87.53
2024-01-24T04:07:17.813Z,96.63
2024-01-24T04:10:21.858Z,97.22
2024-01-24T04:13:25.552Z,102.80
2024-01-24T04:16:28.407Z,116.20
2024-01-24T04:19:31.392Z,116.35
2024-01-24T04:22:34.163Z,115.55
2024-01-24T04:25:36.714Z,106.00
2024-01-24T04:28:39.194Z,100.65
2024-01-24T04:31:43.568Z,111.95
2024-01-24T04:34:46.301Z,109.87
2024-01-24T04:37:48.943Z,106.10
2024-01-24T04:40:51.510Z,111.45
2024-01-24T04:43:54.058Z,105.57
2024-01-24T04:46:56.663Z,107.88
2024-01-24T04:49:59.423Z,112.38
2024-01-24T04:53:02.108Z,103.22
2024-01-24T04:56:04.895Z,109.63
2024-01-24T04:59:07.391Z,104.05
2024-01-24T05:02:10.186Z,98.05
2024-01-24T05:05:12.962Z,100.07
2024-01-24T05:08:18.043Z,98.30
2024-01-24T05:11:20.583Z,100.20
2024-01-24T05:14:23.061Z,107.67
2024-01-24T05:17:25.547Z,104.30
2024-01-24T05:20:27.987Z,97.28
2024-01-24T05:23:33.377Z,103.75
2024-01-24T05:26:37.580Z,106.13
2024-01-24T05:29:40.624Z,120.38
2024-01-24T05:32:43.235Z,118.45
2024-01-24T05:35:47.011Z,117.97
2024-01-24T05:38:49.470Z,121.70
2024-01-24T05:41:52.090Z,109.32
2024-01-24T05:44:54.619Z,122.13
2024-01-24T05:47:57.425Z,108.00
2024-01-24T05:51:00.379Z,113.15
2024-01-24T05:54:02.887Z,113.22
2024-01-24T05:57:05.683Z,140.13
2024-01-24T06:00:11.137Z,131.75
2024-01-24T06:03:15.398Z,122.47
2024-01-24T06:06:20.377Z,139.47
2024-01-24T06:09:23.429Z,126.40
2024-01-24T06:12:25.967Z,148.90
2024-01-24T06:15:32.761Z,121.23
2024-01-24T06:18:36.049Z,147.90
2024-01-24T06:21:38.834Z,138.75
2024-01-24T06:24:41.427Z,159.25
2024-01-24T06:27:46.420Z,119.88
2024-01-24T06:30:49.354Z,132.63
2024-01-24T06:33:52.640Z,126.88
2024-01-24T06:36:55.562Z,124.57
2024-01-24T06:39:58.881Z,129.55
2024-01-24T06:43:01.770Z,119.57
2024-01-24T06:46:06.265Z,119.80
2024-01-24T06:49:11.134Z,115.00
2024-01-24T06:52:14.103Z,115.70
2024-01-24T06:55:18.682Z,118.93
2024-01-24T06:58:21.639Z,115.68
2024-01-24T07:01:24.284Z,106.63
2024-01-24T07:04:27.335Z,108.65
2024-01-24T07:07:31.854Z,106.60
2024-01-24T07:10:35.977Z,116.30
2024-01-24T07:13:39.365Z,98.13
2024-01-24T07:16:45.746Z,106.23
2024-01-24T07:19:49.115Z,87.13
2024-01-24T07:22:52.146Z,86.90
2024-01-24T07:25:56.473Z,91.75
2024-01-24T07:29:00.250Z,83.00
2024-01-24T07:32:05.402Z,82.50
2024-01-24T07:35:12.880Z,78.72
2024-01-24T07:38:16.207Z,87.77
2024-01-24T07:41:19.094Z,85.63
2024-01-24T07:44:21.885Z,88.32
2024-01-24T07:47:27.453Z,85.67
2024-01-24T07:50:34.839Z,83.68
2024-01-24T07:53:39.813Z,87.57
2024-01-24T07:56:47.059Z,81.20
2024-01-24T07:59:49.860Z,78.32
2024-01-24T08:02:53.329Z,79.85
2024-01-24T08:05:56.178Z,74.53
2024-01-24T08:08:58.929Z,74.40
2024-01-24T08:12:02.354Z,71.35
2024-01-24T08:15:08.157Z,74.20
2024-01-24T08:18:12.384Z,77.27
2024-01-24T08:21:16.428Z,71.18
2024-01-24T08:24:19.484Z,69.82
2024-01-24T08:27:22.347Z,72.30
2024-01-24T08:30:25.134Z,74.53
2024-01-24T08:33:28.403Z,72.45
2024-01-24T08:36:32.934Z,77.40
2024-01-24T08:39:35.961Z,66.53
2024-01-24T08:42:39.230Z,64.68
2024-01-24T08:45:41.941Z,63.97
2024-01-24T08:48:45.135Z,63.93
2024-01-24T08:51:47.878Z,65.43
2024-01-24T08:54:52.432Z,65.88
2024-01-24T08:57:55.803Z,77.80
2024-01-24T09:00:59.086Z,80.72
2024-01-24T09:04:03.546Z,76.85
2024-01-24T09:07:08.084Z,73.97
2024-01-24T09:10:11.172Z,68.43
2024-01-24T09:13:14.380Z,61.15
2024-01-24T09:16:17.403Z,60.10
2024-01-24T09:19:22.243Z,53.90
2024-01-24T09:22:25.256Z,55.38
2024-01-24T09:25:29.081Z,56.20
2024-01-24T09:28:32.191Z,53.83
2024-01-24T09:31:35.091Z,56.25
2024-01-24T09:34:39.439Z,78.50
2024-01-24T09:37:42.599Z,76.38
2024-01-24T09:40:45.468Z,69.83
2024-01-24T09:43:49.221Z,56.22
2024-01-24T09:46:55.159Z,60.47
2024-01-24T09:50:00.633Z,53.93
2024-01-24T09:53:08.900Z,49.08
2024-01-24T09:56:13.160Z,46.35
2024-01-24T09:59:15.890Z,49.03
2024-01-24T10:02:19.054Z,45.50
2024-01-24T10:05:30.386Z,44.40
2024-01-24T10:08:33.793Z,44.70
2024-01-24T10:11:37.392Z,42.07
2024-01-24T10:14:42.417Z,39.78
2024-01-24T10:17:45.726Z,40.17
2024-01-24T10:20:53.118Z,40.90
2024-01-24T10:23:59.212Z,43.17
2024-01-24T10:27:03.511Z,43.97
2024-01-24T10:30:14.268Z,40.90
2024-01-24T10:33:19.663Z,43.63
2024-01-24T10:36:27.724Z,41.75
2024-01-24T10:39:36.093Z,45.28
2024-01-24T10:42:41.875Z,45.47
2024-01-24T10:45:45.954Z,44.55
2024-01-24T10:48:49.781Z,45.10
2024-01-24T10:51:53.897Z,47.20
2024-01-24T10:55:05.345Z,44.67
2024-01-24T10:58:12.966Z,46.22
2024-01-24T11:01:16.128Z,44.95
2024-01-24T11:04:24.494Z,44.40
2024-01-24T11:07:33.938Z,50.03
2024-01-24T11:10:41.896Z,42.40
2024-01-24T11:13:46.049Z,50.90
2024-01-24T11:16:48.787Z,48.17
2024-01-24T11:19:52.175Z,46.90
2024-01-24T11:22:55.144Z,47.90
2024-01-24T11:25:58.212Z,45.22
2024-01-24T11:29:16.765Z,42.63
2024-01-24T11:33:01.656Z,44.67
2024-01-24T11:36:12.809Z,49.78
2024-01-24T11:39:49.185Z,50.95
2024-01-24T11:42:58.340Z,50.55
2024-01-24T11:46:06.164Z,48.90
2024-01-24T11:49:09.748Z,57.45
2024-01-24T11:52:12.951Z,50.10
2024-01-24T11:55:18.502Z,60.73
2024-01-24T11:58:28.407Z,58.92
2024-01-24T12:01:31.313Z,61.25
2024-01-24T12:04:34.239Z,63.28
2024-01-24T12:07:37.940Z,63.25
2024-01-24T12:10:41.320Z,66.15
2024-01-24T12:13:44.757Z,65.75
2024-01-24T12:16:48.620Z,55.57
2024-01-24T12:19:51.527Z,60.55
2024-01-24T12:22:56.595Z,63.42
2024-01-24T12:26:00.560Z,73.60
2024-01-24T12:29:06.720Z,70.28
2024-01-24T12:32:10.325Z,72.65
2024-01-24T12:35:16.954Z,68.60
2024-01-24T12:38:20.086Z,85.35
2024-01-24T12:41:24.372Z,73.97
2024-01-24T12:44:27.585Z,67.57
2024-01-24T12:47:30.461Z,61.37
2024-01-24T12:50:34.400Z,61.75
2024-01-24T12:53:37.228Z,61.75
2024-01-24T12:56:39.912Z,64.47
2024-01-24T12:59:43.315Z,63.53
2024-01-24T13:02:47.068Z,60.88
2024-01-24T13:05:51.490Z,58.80
2024-01-24T13:08:55.492Z,66.70
2024-01-24T13:11:58.579Z,75.47
2024-01-24T13:15:01.525Z,75.95
2024-01-24T13:18:07.002Z,76.57
2024-01-24T13:21:10.769Z,64.32
2024-01-24T13:24:13.767Z,52.42
2024-01-24T13:27:19.481Z,40.17
2024-01-24T13:30:22.307Z,41.33
2024-01-24T13:33:25.418Z,40.30
2024-01-24T13:36:28.392Z,35.88
2024-01-24T13:39:32.057Z,39.78
2024-01-24T13:42:34.890Z,34.85
2024-01-24T13:45:40.923Z,38.17
2024-01-24T13:48:45.258Z,32.50
2024-01-24T13:51:50.153Z,38.55
2024-01-24T13:54:53.367Z,35.47
2024-01-24T13:58:00.528Z,34.27
2024-01-24T14:01:04.943Z,37.10
2024-01-24T14:04:07.803Z,40.88
2024-01-24T14:07:10.728Z,40.92
2024-01-24T14:10:14.005Z,44.15
2024-01-24T14:13:17.581Z,44.38
2024-01-24T14:16:20.513Z,54.75
2024-01-24T14:19:25.201Z,52.60
2024-01-24T14:22:28.982Z,49.90
2024-01-24T14:25:32.056Z,53.92
2024-01-24T14:28:35.229Z,50.53
2024-01-24T14:31:39.211Z,42.92
2024-01-24T14:34:44.040Z,44.45
2024-01-24T14:37:47.676Z,41.33
2024-01-24T14:40:50.858Z,44.65
2024-01-24T14:43:54.023Z,46.97
2024-01-24T14:46:56.764Z,50.67
2024-01-24T14:49:59.813Z,47.83
2024-01-24T14:53:02.742Z,45.80
2024-01-24T14:56:06.396Z,48.80
2024-01-24T14:59:09.485Z,53.60
2024-01-24T15:02:12.207Z,61.78
2024-01-24T15:05:15.053Z,68.43
2024-01-24T15:08:18.876Z,72.07
2024-01-24T15:11:21.624Z,103.95
2024-01-24T15:14:25.212Z,71.13
2024-01-24T15:17:28.875Z,57.97
2024-01-24T15:20:31.873Z,56.67
2024-01-24T15:23:35.252Z,61.55
2024-01-24T15:26:39.561Z,58.55
2024-01-24T15:29:42.430Z,55.93
2024-01-24T15:32:46.170Z,53.40
2024-01-24T15:35:51.209Z,50.40
2024-01-24T15:38:56.125Z,45.55
2024-01-24T15:42:03.683Z,42.08
2024-01-24T15:45:06.654Z,50.40
2024-01-24T15:48:09.394Z,44.50
2024-01-24T15:51:12.302Z,66.83
2024-01-24T15:54:15.174Z,58.67
2024-01-24T15:57:17.931Z,53.50
2024-01-24T16:00:21.253Z,51.10
2024-01-24T16:03:27.493Z,41.78
2024-01-24T16:06:30.702Z,35.05
2024-01-24T16:09:34.046Z,34.97
2024-01-24T16:12:37.188Z,37.30
2024-01-24T16:15:39.816Z,33.90
2024-01-24T16:18:44.553Z,34.42
2024-01-24T16:21:49.862Z,35.83
2024-01-24T16:24:52.637Z,37.00
2024-01-24T16:27:56.443Z,33.30
2024-01-24T16:30:59.437Z,48.00
2024-01-24T16:34:02.165Z,77.75
2024-01-24T16:37:05.143Z,109.30
2024-01-24T16:40:09.516Z,98.50
2024-01-24T16:43:12.400Z,80.32
2024-01-24T16:46:15.562Z,66.93
2024-01-24T16:49:18.230Z,67.20
2024-01-24T16:52:24.248Z,62.53
2024-01-24T16:55:28.196Z,70.13
2024-01-24T16:58:31.428Z,49.10
2024-01-24T17:01:34.442Z,46.63
2024-01-24T17:04:38.502Z,39.00
2024-01-24T17:07:41.310Z,36.50
2024-01-24T17:10:44.253Z,38.55
2024-01-24T17:13:47.414Z,39.38
2024-01-24T17:16:50.185Z,36.92
2024-01-24T17:19:52.935Z,37.13
2024-01-24T17:22:57.986Z,46.90
2024-01-24T17:26:01.058Z,56.47
2024-01-24T17:29:03.932Z,57.47
2024-01-24T17:32:07.364Z,59.63
2024-01-24T17:35:10.283Z,61.28
2024-01-24T17:38:13.266Z,51.63
2024-01-24T17:41:16.275Z,47.28
2024-01-24T17:44:19.953Z,46.53
2024-01-24T17:47:24.310Z,41.13
2024-01-24T17:50:27.570Z,41.78
2024-01-24T17:53:30.121Z,39.80
2024-01-24T17:56:34.324Z,39.38
2024-01-24T17:59:37.441Z,41.33
2024-01-24T18:02:40.447Z,41.73
2024-01-24T18:05:43.112Z,40.67
2024-01-24T18:08:46.550Z,81.97
2024-01-24T18:11:49.824Z,113.80
2024-01-24T18:14:53.467Z,95.15
2024-01-24T18:17:56.590Z,88.30
2024-01-24T18:20:59.587Z,79.38
2024-01-24T18:24:04.879Z,72.13
2024-01-24T18:27:07.651Z,77.55
2024-01-24T18:30:10.785Z,94.57
2024-01-24T18:33:15.979Z,93.13
2024-01-24T18:36:20.162Z,87.70
2024-01-24T18:39:22.989Z,84.70
2024-01-24T18:42:25.994Z,86.95
2024-01-24T18:45:29.021Z,83.00
2024-01-24T18:48:31.938Z,69.03
2024-01-24T18:51:34.697Z,70.15
2024-01-24T18:54:37.507Z,60.53
2024-01-24T18:57:43.928Z,62.53
2024-01-24T19:00:47.199Z,64.82
2024-01-24T19:03:56.165Z,60.70
2024-01-24T19:07:01.388Z,55.33
2024-01-24T19:10:04.741Z,64.43
2024-01-24T19:13:07.891Z,74.70
2024-01-24T19:16:11.690Z,82.78
2024-01-24T19:19:16.303Z,80.68
2024-01-24T19:22:19.180Z,84.82
2024-01-24T19:25:22.528Z,79.43
2024-01-24T19:28:25.090Z,76.85
2024-01-24T19:31:27.745Z,76.20
2024-01-24T19:34:30.393Z,69.63
2024-01-24T19:37:34.173Z,74.07
2024-01-24T19:40:36.805Z,88.82
2024-01-24T19:43:40.076Z,95.45
2024-01-24T19:46:44.585Z,112.90
2024-01-24T19:49:47.411Z,115.43
2024-01-24T19:52:52.300Z,76.03
2024-01-24T19:56:00.408Z,79.97
2024-01-24T19:59:05.006Z,58.00
2024-01-24T20:02:07.617Z,49.95
2024-01-24T20:05:10.193Z,49.53
2024-01-24T20:08:12.738Z,55.25
2024-01-24T20:11:15.880Z,50.17
2024-01-24T20:14:18.812Z,46.35
2024-01-24T20:17:23.841Z,45.08
2024-01-24T20:20:26.708Z,48.28
2024-01-24T20:23:31.202Z,55.60
2024-01-24T20:26:35.941Z,54.03
2024-01-24T20:29:38.826Z,59.25
2024-01-24T20:32:45.698Z,76.80
2024-01-24T20:36:00.436Z,74.03
2024-01-24T20:39:03.592Z,77.95
2024-01-24T20:42:11.079Z,69.25
2024-01-24T20:45:16.873Z,74.57
2024-01-24T20:48:19.870Z,97.03
2024-01-24T20:51:22.736Z,89.60
2024-01-24T20:54:25.433Z,80.90
2024-01-24T20:57:30.216Z,82.70
2024-01-24T21:00:33.587Z,80.85
2024-01-24T21:03:36.698Z,88.32
2024-01-24T21:06:40.745Z,78.53
2024-01-24T21:09:44.519Z,85.85
2024-01-24T21:12:47.318Z,78.25
2024-01-24T21:15:50.843Z,87.70
2024-01-24T21:18:53.480Z,79.38
2024-01-24T21:21:56.364Z,82.57
2024-01-24T21:24:59.169Z,86.30
2024-01-24T21:28:02.631Z,86.37
2024-01-24T21:31:07.441Z,76.22
2024-01-24T21:34:10.300Z,77.88
2024-01-24T21:37:12.887Z,67.87
2024-01-24T21:40:16.075Z,64.22
2024-01-24T21:43:19.064Z,67.82
2024-01-24T21:46:21.816Z,66.43
2024-01-24T21:49:24.463Z,69.65
2024-01-24T21:52:27.021Z,78.82
2024-01-24T21:55:29.730Z,80.68
2024-01-24T21:58:32.232Z,80.90
2024-01-24T22:01:35.118Z,80.35
2024-01-24T22:04:38.123Z,88.03
2024-01-24T22:07:44.400Z,82.50
2024-01-24T22:10:47.236Z,81.50
2024-01-24T22:13:50.695Z,84.07
2024-01-24T22:16:53.742Z,78.97
2024-01-24T22:19:56.343Z,87.57
2024-01-24T22:22:59.024Z,93.00
2024-01-24T22:26:01.760Z,145.10
2024-01-24T22:29:05.636Z,130.07
2024-01-24T22:32:10.103Z,118.50
2024-01-24T22:35:13.066Z,142.32
2024-01-24T22:38:16.723Z,123.60
2024-01-24T22:41:22.020Z,141.60
2024-01-24T22:44:25.068Z,238.15
2024-01-24T22:47:28.716Z,146.50
2024-01-24T22:50:31.996Z,150.68
2024-01-24T22:53:35.344Z,189.18
2024-01-24T22:56:37.909Z,201.98
2024-01-24T22:59:40.571Z,222.73
2024-01-24T23:02:43.135Z,204.07
2024-01-24T23:05:45.745Z,205.75
2024-01-24T23:08:48.373Z,210.77
2024-01-24T23:11:50.951Z,260.05
2024-01-24T23:14:53.727Z,258.02
2024-01-24T23:17:56.391Z,283.77
2024-01-24T23:21:00.509Z,192.10
2024-01-24T23:24:03.285Z,219.48
2024-01-24T23:27:06.040Z,189.82
2024-01-24T23:30:09.212Z,169.53
2024-01-24T23:33:12.339Z,126.85
2024-01-24T23:36:15.161Z,190.50
2024-01-24T23:39:18.318Z,194.80
2024-01-24T23:42:21.050Z,183.68
2024-01-24T23:45:24.246Z,158.60
2024-01-24T23:48:27.713Z,148.40
2024-01-24T23:51:33.660Z,146.32
2024-01-24T23:54:38.420Z,101.43
2024-01-24T23:57:41.087Z,107.60
